createdAt,value
2022-11-22T00:08:58.145Z,6.84
2022-11-22T00:18:58.273Z,7.19
2022-11-22T00:28:58.430Z,7.24
2022-11-22T00:38:58.694Z,7.34
2022-11-22T00:48:58.882Z,7.32
2022-11-22T00:58:59.110Z,7.44
2022-11-22T01:08:59.285Z,7.59
2022-11-22T01:18:59.524Z,7.72
2022-11-22T01:28:59.684Z,7.75
2022-11-22T01:38:59.939Z,7.67
2022-11-22T01:49:00.130Z,7.56
2022-11-22T01:59:00.282Z,7.20
2022-11-22T02:09:00.465Z,7.13
2022-11-22T02:19:00.708Z,7.07
2022-11-22T02:29:00.887Z,7.15
2022-11-22T02:39:01.145Z,6.91
2022-11-22T02:49:01.331Z,6.98
2022-11-22T02:59:01.583Z,6.99
2022-11-22T03:09:01.767Z,6.97
2022-11-22T03:19:02.019Z,6.84
2022-11-22T03:29:02.501Z,6.83
2022-11-22T03:39:02.405Z,6.79
2022-11-22T03:49:02.576Z,6.77
2022-11-22T03:59:03.057Z,6.84
2022-11-22T04:09:03.013Z,6.84
2022-11-22T04:19:03.089Z,6.84
2022-11-22T04:29:09.628Z,6.89
2022-11-22T04:39:04.379Z,6.66
2022-11-22T04:49:03.572Z,6.62
2022-11-22T04:59:03.705Z,6.54
2022-11-22T05:09:03.907Z,6.32
2022-11-22T05:19:04.184Z,6.00
2022-11-22T05:29:04.257Z,5.86
2022-11-22T05:39:04.525Z,5.78
2022-11-22T05:49:04.720Z,5.78
2022-11-22T05:59:05.169Z,6.04
2022-11-22T06:09:05.019Z,6.18
2022-11-22T06:19:05.271Z,6.07
2022-11-22T06:29:05.466Z,6.30
2022-11-22T06:39:05.732Z,6.29
2022-11-22T06:49:05.806Z,6.06
2022-11-22T06:59:06.052Z,5.85
2022-11-22T07:09:06.205Z,6.04
2022-11-22T07:19:06.487Z,6.32
2022-11-22T07:29:06.686Z,6.53
2022-11-22T07:39:06.909Z,6.77
2022-11-22T07:49:07.284Z,6.81
2022-11-22T07:59:07.388Z,6.98
2022-11-22T08:09:07.531Z,7.22
2022-11-22T08:19:07.741Z,7.47
2022-11-22T08:29:13.694Z,7.63
2022-11-22T08:39:09.399Z,7.78
2022-11-22T08:49:08.343Z,7.78
2022-11-22T08:59:08.495Z,7.75
2022-11-22T09:09:35.788Z,7.99
2022-11-22T09:19:09.896Z,8.12
2022-11-22T09:29:08.827Z,8.11
2022-11-22T09:39:09.175Z,8.25
2022-11-22T09:49:09.221Z,8.26
2022-11-22T09:59:09.770Z,8.32
2022-11-22T10:09:09.611Z,8.48
2022-11-22T10:19:09.939Z,8.45
